Floresville, TX

3:30 AM CDT on October 02, 2014 (GMT -0500)
Pleasanton Municipal | Change Station
CLOSE
Current Station
Airport
Location: Pleasanton,
Elevation: 430 ft
Nearby Weather Stations

Elev 430 ft 28.96 °N, 98.52 °W | Updated 15 minutes ago

Overcast
Overcast
80 °F
Feels Like 80 °F
N
8
Wind Variable Wind from SSE

Today
High -- | Low -- °F
--% Chance of Precip.
Yesterday
High -- | Low -- °F
Precip. -- in
7:26 AM 7:17 PM
First Quarter, 56% visible
Pressure 29.83 in
Visibility 10.0 miles
Clouds Mostly Cloudy 1500 ft
Overcast 2000 ft
Dew Point 74 °F
Humidity 84%
Rainfall 0.00 in
Snow Depth Not available.
UV 0 out of 12
Pollen 8.90 out of 12
Ozone Good
PM2.5 Good
Flu Activity Not available.
METAR KPEZ 020815Z AUTO 15007KT 10SM BKN015 OVC020 26/24 A2983 RMK AO2 T02640236

More Conditions Fewer Conditions

Pressure 29.83 in
Visibility 10.0 miles
Clouds Mostly Cloudy 1500 ft
Overcast 2000 ft
Dew Point 74 °F
Humidity 84%
Rainfall 0.00 in
Snow Depth Not available.
UV 0 out of 12
Pollen 8.90 out of 12
Ozone Good
PM2.5 Good
Flu Activity Not available.
METAR KPEZ 020815Z AUTO 15007KT 10SM BKN015 OVC020 26/24 A2983 RMK AO2 T02640236

More Conditions Fewer Conditions

10-Day Weather Forecast

Almanac

Astronomy

Oct. 02, 2014 Rise Set
Actual Time 7:26 AM CDT 7:17 PM CDT
Civil Twilight 7:02 AM CDT 7:40 PM CDT
Nautical Twilight 6:35 AM CDT 8:08 PM CDT
Astronomical Twilight 6:07 AM CDT 8:35 PM CDT
Moon 3:00 PM CDT 1:10 AM CDT
Length of Visible Light 12h 38m
Length of Day
11h 50m
Tomorrow will be 1m 44s shorter.
First Quarter, 56% of the Moon is Illuminated
Today
First Quarter
Oct 8
Full
Oct 15
Last Quarter
Oct 23
New
Oct 30
First Quarter

Today's Extremes

State Highs State Lows

Community

WunderPhotos

Upload Photos

1,758,196 photos uploaded!

WunderBlogs® & News

By Dr. Jeff Masters
Director of Meteorology, Weather Underground
By Kari Strenfel
Meteorologist, Weather Underground
By Christopher C. Burt
Weather Historian, Weather Underground
October 2, 2014
October 2, 2014
October 2, 2014

Nearby

Air Quality

  Air Quality AQ Index Pollutant
Yesterday Good
OZONE
Yesterday Good
PM2.5
Current Good
PM2.5
Current Good
OZONE
Thursday Good
OZONE
Thursday Good
PM10
Friday Good
OZONE
Friday Good
PM10
Saturday Good
OZONE
Saturday Good
PM10

Snow Depth

Station Depth Elevation
No new snow has been reported.

Earthquake Activity

City Distance Mag. Time & Date
No recent earthquake activity has been reported nearby.
Minimum magnitude displayed is 2.5.

Coastal Water Temperatures

Place Temperature
No Stations Reporting

Nearby Weather Stations